Sand Key, FL current weather conditions

sailwx.info

Wind from 100 at 16 knots gusting 18

Air temperature 28.6° C

Last reported at 2014-Sep-03 03:50 UTC.
Time now 2014-Sep-03 05:05 UTC

Location: N 24°28' W 081°53'.
View on Google Maps.

See reports from other nearby stations

  
Tides and Currents Weather Stations Pressure Air Temp Water Temp Dewpoint Dewpoint Depression Visibility Wind Speed Wind Dir Waves Ship Positions
date/time (UTC)wind fromknots sea level pressurealtimeterstation pressurevisibilityair tempwater tempwave heightnotes
2014-Sep-03 03:50 100 16 gusting 18 28.6
2014-Sep-03 02:50 100 15 gusting 17 28.8
2014-Sep-03 01:50 100 15 gusting 18 28.8
2014-Sep-03 00:50 090 14 gusting 16 28.2
2014-Sep-02 22:50 070 8 gusting 10 27.9
2014-Sep-02 21:50 040 7 gusting 8 27.5
2014-Sep-02 20:50 080 4 gusting 6 27.5
2014-Sep-02 19:50 060 6 gusting 17 27.7
2014-Sep-02 18:50 100 4 gusting 5 27.9
2014-Sep-02 17:50 130 6 gusting 9 27.0
2014-Sep-02 16:50 160 9 gusting 11 28.8
2014-Sep-02 15:50 130 10 gusting 12 29.2
2014-Sep-02 14:50 110 12 gusting 14 29.1
2014-Sep-02 13:50 110 15 gusting 18 28.9
2014-Sep-02 12:50 090 16 gusting 18 28.6
2014-Sep-02 11:50 120 13 gusting 16 28.9
2014-Sep-02 10:50 100 11 gusting 13 29.0
2014-Sep-02 09:50 090 12 gusting 16 28.8
2014-Sep-02 08:50 090 13 gusting 16 28.8
2014-Sep-02 07:50 070 13 gusting 15 28.4
2014-Sep-02 06:50 070 15 gusting 19 28.6
2014-Sep-02 05:50 060 10 gusting 13 28.7
2014-Sep-02 04:50 090 12 gusting 14 29.3
2014-Sep-02 03:50 090 13 gusting 15 29.3
2014-Sep-02 02:50 090 12 gusting 14 29.4
2014-Sep-02 01:50 100 13 gusting 14 29.5
2014-Sep-02 00:50 090 12 gusting 14 29.5
2014-Sep-01 22:50 090 8 gusting 10 29.3
2014-Sep-01 21:50 100 8 gusting 10 29.4
2014-Sep-01 20:50 110 10 gusting 11 29.3
2014-Sep-01 19:50 130 10 gusting 13 29.4
2014-Sep-01 18:50 120 13 gusting 15 29.4
2014-Sep-01 17:50 130 13 gusting 16 29.4
2014-Sep-01 16:50 130 14 gusting 16 29.3
2014-Sep-01 15:50 120 15 gusting 18 29.5
2014-Sep-01 14:50 120 13 gusting 16 29.1
2014-Sep-01 13:50 110 15 gusting 17 29.1
2014-Sep-01 12:50 120 17 gusting 19 29.1
2014-Sep-01 11:50 120 17 gusting 20 29.1
2014-Sep-01 10:50 120 13 gusting 17 28.8
2014-Sep-01 09:50 110 16 gusting 18 29.3
2014-Sep-01 08:50 100 16 gusting 19 29.3
2014-Sep-01 07:50 120 22 gusting 34 27.0
2014-Sep-01 06:50 100 15 gusting 17 29.5
2014-Sep-01 05:50 110 17 gusting 19 29.5